This is the latest recevied weather packets stored in our database for station/object KC4GS-13. If no packets are shown the sender has not sent any weather packets the latest 10 day(s).
| Time | Temp. | Humidity | Pressure | Rain* | Wind** | Luminosity | Snow |
|---|---|---|---|---|---|---|---|
| 1787770004 | 33.33° C | 54% | 1017.1 hPa | 0 mm | - | 806 W/m² | - |
| 1787769700 | 32.78° C | 56% | 1017.2 hPa | 0 mm | - | 742 W/m² | - |
| 1787769398 | 33.33° C | 55% | 1017.1 hPa | 0 mm | - | 185 W/m² | - |
| 1787769093 | 33.33° C | 56% | 1017.4 hPa | 0 mm | - | 797 W/m² | - |
| 1787768788 | 32.78° C | 57% | 1017.3 hPa | 0 mm | - | 803 W/m² | - |
| 1787768485 | 32.22° C | 58% | 1017.4 hPa | 0 mm | - | 826 W/m² | - |
| 1787768180 | 31.67° C | 60% | 1017.4 hPa | 0 mm | - | 152 W/m² | - |
| 1787767876 | 32.22° C | 58% | 1017.6 hPa | 0 mm | - | 155 W/m² | - |
| 1787767571 | 31.67° C | 60% | 1017.5 hPa | 0 mm | - | 355 W/m² | - |
| 1787767270 | 31.67° C | 60% | 1017.3 hPa | 0 mm | - | 343 W/m² | - |
| 1787766969 | 31.67° C | 61% | 1017.7 hPa | 0 mm | - | 807 W/m² | - |
| 1787766663 | 32.22° C | 60% | 1017.6 hPa | 0 mm | - | 248 W/m² | - |
| 1787766362 | 31.67° C | 61% | 1017.6 hPa | 0 mm | - | 810 W/m² | - |
| 1787766062 | 31.67° C | 61% | 1017.7 hPa | 0 mm | - | 801 W/m² | - |
| 1787765759 | 31.67° C | 63% | 1018 hPa | 0 mm | - | 309 W/m² | - |
| 1787765455 | 32.22° C | 61% | 1018 hPa | 0 mm | - | 373 W/m² | - |
| 1787765154 | 31.67° C | 62% | 1017.9 hPa | 0 mm | - | 888 W/m² | - |
| 1787764849 | 31.11° C | 63% | 1018.2 hPa | 0 mm | - | 481 W/m² | - |
| 1787764544 | 31.67° C | 62% | 1018.4 hPa | 0 mm | - | 219 W/m² | - |
| 1787764239 | 31.11° C | 64% | 1018.6 hPa | 0 mm | - | 291 W/m² | - |
| 1787763935 | 31.11° C | 64% | 1018.3 hPa | 0 mm | - | 218 W/m² | - |
| 1787763630 | 31.67° C | 62% | 1018.4 hPa | 0 mm | - | 399 W/m² | - |
| 1787763326 | 30.56° C | 65% | 1018.7 hPa | 0 mm | - | 870 W/m² | - |
| 1787763025 | 31.11° C | 63% | 1018.9 hPa | 0 mm | - | 596 W/m² | - |
| 1787762719 | 30.56° C | 65% | 1018.9 hPa | 0 mm | - | 174 W/m² | - |
* Rain latest hour (hover to see other rain measurements)
** Current wind speed in m/s (hover to see current wind gust speed)